sensor_id;sensor_type;location;lat;lon;timestamp;P1;durP1;ratioP1;P2;durP2;ratioP2
12968;SDS011;6549;53.128;8.182;2023-06-14T00:01:46;6.45;;;2.30;;
12968;SDS011;6549;53.128;8.182;2023-06-14T00:04:47;4.70;;;2.13;;
12968;SDS011;6549;53.128;8.182;2023-06-14T00:07:48;5.22;;;2.50;;
12968;SDS011;6549;53.128;8.182;2023-06-14T00:10:49;6.38;;;2.60;;
12968;SDS011;6549;53.128;8.182;2023-06-14T00:13:49;2.55;;;2.20;;
12968;SDS011;6549;53.128;8.182;2023-06-14T00:16:50;4.35;;;2.30;;
12968;SDS011;6549;53.128;8.182;2023-06-14T00:19:52;4.35;;;2.55;;
12968;SDS011;6549;53.128;8.182;2023-06-14T00:22:53;4.07;;;2.30;;
12968;SDS011;6549;53.128;8.182;2023-06-14T00:25:55;3.92;;;2.58;;
12968;SDS011;6549;53.128;8.182;2023-06-14T00:28:55;5.22;;;2.10;;
12968;SDS011;6549;53.128;8.182;2023-06-14T00:31:56;4.85;;;2.47;;
12968;SDS011;6549;53.128;8.182;2023-06-14T00:34:56;4.47;;;2.30;;
12968;SDS011;6549;53.128;8.182;2023-06-14T00:37:57;3.80;;;2.20;;
12968;SDS011;6549;53.128;8.182;2023-06-14T00:40:57;4.30;;;2.53;;
12968;SDS011;6549;53.128;8.182;2023-06-14T00:43:57;5.28;;;2.50;;
12968;SDS011;6549;53.128;8.182;2023-06-14T00:46:59;4.05;;;2.17;;
12968;SDS011;6549;53.128;8.182;2023-06-14T00:50:00;5.30;;;2.72;;
12968;SDS011;6549;53.128;8.182;2023-06-14T00:53:01;4.82;;;2.40;;
12968;SDS011;6549;53.128;8.182;2023-06-14T00:56:03;5.90;;;2.58;;
12968;SDS011;6549;53.128;8.182;2023-06-14T00:59:03;5.68;;;2.33;;
12968;SDS011;6549;53.128;8.182;2023-06-14T01:02:04;4.80;;;2.60;;
12968;SDS011;6549;53.128;8.182;2023-06-14T01:05:04;6.07;;;2.70;;
12968;SDS011;6549;53.128;8.182;2023-06-14T01:11:30;5.03;;;2.35;;
12968;SDS011;6549;53.128;8.182;2023-06-14T01:14:36;6.45;;;2.50;;
12968;SDS011;6549;53.128;8.182;2023-06-14T01:17:38;4.22;;;2.67;;
12968;SDS011;6549;53.128;8.182;2023-06-14T01:20:41;5.00;;;2.35;;
12968;SDS011;6549;53.128;8.182;2023-06-14T01:23:42;5.25;;;2.92;;
12968;SDS011;6549;53.128;8.182;2023-06-14T01:26:42;4.30;;;2.63;;
12968;SDS011;6549;53.128;8.182;2023-06-14T01:29:45;5.60;;;2.70;;
12968;SDS011;6549;53.128;8.182;2023-06-14T01:32:46;4.07;;;2.80;;
12968;SDS011;6549;53.128;8.182;2023-06-14T01:35:48;6.32;;;3.15;;
12968;SDS011;6549;53.128;8.182;2023-06-14T01:38:49;7.68;;;3.08;;
12968;SDS011;6549;53.128;8.182;2023-06-14T01:41:51;3.67;;;2.60;;
12968;SDS011;6549;53.128;8.182;2023-06-14T01:44:52;5.97;;;3.03;;
12968;SDS011;6549;53.128;8.182;2023-06-14T01:47:55;5.85;;;3.20;;
12968;SDS011;6549;53.128;8.182;2023-06-14T01:50:55;5.95;;;3.03;;
12968;SDS011;6549;53.128;8.182;2023-06-14T01:53:55;6.22;;;2.90;;
12968;SDS011;6549;53.128;8.182;2023-06-14T01:56:57;6.32;;;2.97;;
12968;SDS011;6549;53.128;8.182;2023-06-14T01:59:57;6.53;;;2.80;;
12968;SDS011;6549;53.128;8.182;2023-06-14T02:02:57;4.13;;;2.80;;
12968;SDS011;6549;53.128;8.182;2023-06-14T02:05:58;5.00;;;3.05;;
12968;SDS011;6549;53.128;8.182;2023-06-14T02:08:58;7.00;;;3.05;;
12968;SDS011;6549;53.128;8.182;2023-06-14T02:11:59;6.10;;;3.53;;
12968;SDS011;6549;53.128;8.182;2023-06-14T02:14:59;6.82;;;3.60;;
12968;SDS011;6549;53.128;8.182;2023-06-14T02:18:03;7.00;;;3.25;;
12968;SDS011;6549;53.128;8.182;2023-06-14T02:21:04;8.27;;;3.25;;
12968;SDS011;6549;53.128;8.182;2023-06-14T02:24:04;8.32;;;3.45;;
12968;SDS011;6549;53.128;8.182;2023-06-14T02:27:05;6.65;;;3.30;;
12968;SDS011;6549;53.128;8.182;2023-06-14T02:30:06;7.57;;;3.60;;
12968;SDS011;6549;53.128;8.182;2023-06-14T02:33:07;5.53;;;3.20;;
12968;SDS011;6549;53.128;8.182;2023-06-14T02:36:08;5.32;;;3.15;;
12968;SDS011;6549;53.128;8.182;2023-06-14T02:39:09;3.88;;;2.90;;
12968;SDS011;6549;53.128;8.182;2023-06-14T02:42:10;6.80;;;3.78;;
12968;SDS011;6549;53.128;8.182;2023-06-14T02:45:11;5.00;;;3.38;;
12968;SDS011;6549;53.128;8.182;2023-06-14T02:48:11;6.10;;;3.75;;
12968;SDS011;6549;53.128;8.182;2023-06-14T02:51:11;7.68;;;3.53;;
12968;SDS011;6549;53.128;8.182;2023-06-14T02:54:12;4.82;;;3.15;;
12968;SDS011;6549;53.128;8.182;2023-06-14T02:57:13;8.13;;;3.60;;
12968;SDS011;6549;53.128;8.182;2023-06-14T03:00:14;8.88;;;3.80;;
12968;SDS011;6549;53.128;8.182;2023-06-14T03:03:14;5.13;;;3.55;;
12968;SDS011;6549;53.128;8.182;2023-06-14T03:06:16;6.80;;;3.72;;
12968;SDS011;6549;53.128;8.182;2023-06-14T03:09:16;7.00;;;3.70;;
12968;SDS011;6549;53.128;8.182;2023-06-14T03:12:16;5.90;;;3.45;;
12968;SDS011;6549;53.128;8.182;2023-06-14T03:15:17;8.40;;;3.90;;
12968;SDS011;6549;53.128;8.182;2023-06-14T03:18:17;5.43;;;3.40;;
12968;SDS011;6549;53.128;8.182;2023-06-14T03:21:18;8.45;;;3.83;;
12968;SDS011;6549;53.128;8.182;2023-06-14T03:27:21;7.87;;;3.50;;
12968;SDS011;6549;53.128;8.182;2023-06-14T03:30:21;8.80;;;3.90;;
12968;SDS011;6549;53.128;8.182;2023-06-14T03:33:22;8.00;;;3.75;;
12968;SDS011;6549;53.128;8.182;2023-06-14T03:36:22;6.30;;;3.88;;
12968;SDS011;6549;53.128;8.182;2023-06-14T03:39:22;7.45;;;3.70;;
12968;SDS011;6549;53.128;8.182;2023-06-14T03:42:23;6.68;;;4.18;;
12968;SDS011;6549;53.128;8.182;2023-06-14T03:45:23;8.13;;;3.75;;
12968;SDS011;6549;53.128;8.182;2023-06-14T03:48:23;8.57;;;3.75;;
12968;SDS011;6549;53.128;8.182;2023-06-14T03:51:24;5.50;;;3.65;;
12968;SDS011;6549;53.128;8.182;2023-06-14T03:54:25;5.57;;;3.80;;
12968;SDS011;6549;53.128;8.182;2023-06-14T03:57:26;8.93;;;4.05;;
12968;SDS011;6549;53.128;8.182;2023-06-14T04:00:26;9.25;;;3.78;;
12968;SDS011;6549;53.128;8.182;2023-06-14T04:03:27;8.05;;;3.97;;
12968;SDS011;6549;53.128;8.182;2023-06-14T04:06:29;6.70;;;4.18;;
12968;SDS011;6549;53.128;8.182;2023-06-14T04:09:32;9.38;;;3.70;;
12968;SDS011;6549;53.128;8.182;2023-06-14T04:12:33;6.75;;;3.97;;
12968;SDS011;6549;53.128;8.182;2023-06-14T04:15:33;6.68;;;3.65;;
12968;SDS011;6549;53.128;8.182;2023-06-14T04:18:34;7.85;;;4.05;;
12968;SDS011;6549;53.128;8.182;2023-06-14T04:21:34;8.82;;;4.22;;
12968;SDS011;6549;53.128;8.182;2023-06-14T04:24:34;6.05;;;3.60;;
12968;SDS011;6549;53.128;8.182;2023-06-14T04:27:35;5.63;;;3.65;;
12968;SDS011;6549;53.128;8.182;2023-06-14T04:30:36;5.35;;;4.00;;
12968;SDS011;6549;53.128;8.182;2023-06-14T04:33:38;8.10;;;3.92;;
12968;SDS011;6549;53.128;8.182;2023-06-14T04:36:43;8.07;;;4.18;;
12968;SDS011;6549;53.128;8.182;2023-06-14T04:39:49;6.82;;;3.92;;
12968;SDS011;6549;53.128;8.182;2023-06-14T04:42:50;6.75;;;3.80;;
12968;SDS011;6549;53.128;8.182;2023-06-14T04:45:50;7.55;;;3.88;;
12968;SDS011;6549;53.128;8.182;2023-06-14T04:48:51;6.78;;;4.13;;
12968;SDS011;6549;53.128;8.182;2023-06-14T04:51:52;7.70;;;3.97;;
12968;SDS011;6549;53.128;8.182;2023-06-14T05:05:33;6.40;;;3.85;;
12968;SDS011;6549;53.128;8.182;2023-06-14T05:13:14;7.57;;;3.95;;
12968;SDS011;6549;53.128;8.182;2023-06-14T05:45:59;9.98;;;4.60;;
12968;SDS011;6549;53.128;8.182;2023-06-14T05:52:12;6.80;;;4.10;;
12968;SDS011;6549;53.128;8.182;2023-06-14T05:58:26;8.43;;;5.32;;
12968;SDS011;6549;53.128;8.182;2023-06-14T06:01:29;7.53;;;4.70;;
12968;SDS011;6549;53.128;8.182;2023-06-14T06:04:33;9.35;;;4.38;;
12968;SDS011;6549;53.128;8.182;2023-06-14T06:07:36;8.35;;;4.43;;
12968;SDS011;6549;53.128;8.182;2023-06-14T06:10:37;8.55;;;3.92;;
12968;SDS011;6549;53.128;8.182;2023-06-14T06:13:38;7.57;;;4.07;;
12968;SDS011;6549;53.128;8.182;2023-06-14T06:16:39;9.05;;;3.95;;
12968;SDS011;6549;53.128;8.182;2023-06-14T06:19:40;8.15;;;3.72;;
12968;SDS011;6549;53.128;8.182;2023-06-14T06:22:40;7.00;;;3.60;;
12968;SDS011;6549;53.128;8.182;2023-06-14T06:25:44;6.30;;;4.10;;
12968;SDS011;6549;53.128;8.182;2023-06-14T06:28:44;6.88;;;3.63;;
12968;SDS011;6549;53.128;8.182;2023-06-14T06:31:45;6.57;;;4.00;;
12968;SDS011;6549;53.128;8.182;2023-06-14T06:34:46;5.25;;;3.60;;
12968;SDS011;6549;53.128;8.182;2023-06-14T06:37:46;7.93;;;4.20;;
12968;SDS011;6549;53.128;8.182;2023-06-14T06:40:47;9.95;;;4.00;;
12968;SDS011;6549;53.128;8.182;2023-06-14T06:43:47;7.53;;;3.78;;
12968;SDS011;6549;53.128;8.182;2023-06-14T06:46:47;9.00;;;4.20;;
12968;SDS011;6549;53.128;8.182;2023-06-14T06:49:48;7.78;;;4.05;;
12968;SDS011;6549;53.128;8.182;2023-06-14T06:52:48;6.65;;;3.63;;
12968;SDS011;6549;53.128;8.182;2023-06-14T06:55:49;7.65;;;3.95;;
12968;SDS011;6549;53.128;8.182;2023-06-14T06:58:49;5.88;;;3.22;;
12968;SDS011;6549;53.128;8.182;2023-06-14T07:01:50;6.72;;;3.58;;
12968;SDS011;6549;53.128;8.182;2023-06-14T07:04:51;7.35;;;3.55;;
12968;SDS011;6549;53.128;8.182;2023-06-14T07:07:51;7.20;;;3.50;;
12968;SDS011;6549;53.128;8.182;2023-06-14T07:10:52;9.05;;;3.78;;
12968;SDS011;6549;53.128;8.182;2023-06-14T07:13:52;9.80;;;3.28;;
12968;SDS011;6549;53.128;8.182;2023-06-14T07:16:52;5.68;;;3.47;;
12968;SDS011;6549;53.128;8.182;2023-06-14T07:19:53;5.40;;;3.72;;
12968;SDS011;6549;53.128;8.182;2023-06-14T07:22:53;7.47;;;3.40;;
12968;SDS011;6549;53.128;8.182;2023-06-14T07:25:53;9.18;;;3.45;;
12968;SDS011;6549;53.128;8.182;2023-06-14T07:28:54;6.75;;;3.53;;
12968;SDS011;6549;53.128;8.182;2023-06-14T07:31:54;7.53;;;3.70;;
12968;SDS011;6549;53.128;8.182;2023-06-14T07:34:54;7.13;;;3.20;;
12968;SDS011;6549;53.128;8.182;2023-06-14T07:37:55;5.63;;;3.38;;
12968;SDS011;6549;53.128;8.182;2023-06-14T07:40:55;5.47;;;2.92;;
12968;SDS011;6549;53.128;8.182;2023-06-14T07:43:56;6.40;;;3.45;;
12968;SDS011;6549;53.128;8.182;2023-06-14T07:46:56;5.75;;;3.60;;
12968;SDS011;6549;53.128;8.182;2023-06-14T07:49:58;8.00;;;3.20;;
12968;SDS011;6549;53.128;8.182;2023-06-14T07:52:58;9.20;;;3.53;;
12968;SDS011;6549;53.128;8.182;2023-06-14T07:55:58;8.05;;;3.72;;
12968;SDS011;6549;53.128;8.182;2023-06-14T07:59:00;5.93;;;3.08;;
12968;SDS011;6549;53.128;8.182;2023-06-14T08:02:00;6.68;;;3.50;;
12968;SDS011;6549;53.128;8.182;2023-06-14T08:05:00;5.45;;;3.55;;
12968;SDS011;6549;53.128;8.182;2023-06-14T08:08:01;6.00;;;2.78;;
12968;SDS011;6549;53.128;8.182;2023-06-14T08:11:01;6.47;;;3.42;;
12968;SDS011;6549;53.128;8.182;2023-06-14T08:14:01;8.13;;;2.97;;
12968;SDS011;6549;53.128;8.182;2023-06-14T08:17:02;7.72;;;3.70;;
12968;SDS011;6549;53.128;8.182;2023-06-14T08:20:02;8.43;;;3.10;;
12968;SDS011;6549;53.128;8.182;2023-06-14T08:23:05;5.53;;;2.88;;
12968;SDS011;6549;53.128;8.182;2023-06-14T08:26:05;4.60;;;2.70;;
12968;SDS011;6549;53.128;8.182;2023-06-14T08:29:06;5.95;;;2.88;;
12968;SDS011;6549;53.128;8.182;2023-06-14T08:32:09;6.53;;;2.95;;
12968;SDS011;6549;53.128;8.182;2023-06-14T08:35:10;8.57;;;3.08;;
12968;SDS011;6549;53.128;8.182;2023-06-14T08:38:12;5.07;;;2.67;;
12968;SDS011;6549;53.128;8.182;2023-06-14T08:41:13;5.13;;;2.58;;
12968;SDS011;6549;53.128;8.182;2023-06-14T08:44:21;4.80;;;2.72;;
12968;SDS011;6549;53.128;8.182;2023-06-14T08:47:21;5.22;;;2.20;;
12968;SDS011;6549;53.128;8.182;2023-06-14T08:50:25;5.18;;;2.30;;
12968;SDS011;6549;53.128;8.182;2023-06-14T08:53:32;5.03;;;2.40;;
12968;SDS011;6549;53.128;8.182;2023-06-14T08:56:36;2.50;;;2.08;;
12968;SDS011;6549;53.128;8.182;2023-06-14T08:59:38;4.13;;;2.30;;
12968;SDS011;6549;53.128;8.182;2023-06-14T09:02:45;5.55;;;2.30;;
12968;SDS011;6549;53.128;8.182;2023-06-14T09:05:46;3.35;;;2.20;;
12968;SDS011;6549;53.128;8.182;2023-06-14T09:08:46;4.22;;;2.17;;
12968;SDS011;6549;53.128;8.182;2023-06-14T09:11:50;4.95;;;2.40;;
12968;SDS011;6549;53.128;8.182;2023-06-14T09:14:50;2.75;;;2.22;;
12968;SDS011;6549;53.128;8.182;2023-06-14T09:17:51;3.83;;;1.85;;
12968;SDS011;6549;53.128;8.182;2023-06-14T09:20:51;4.32;;;2.40;;
12968;SDS011;6549;53.128;8.182;2023-06-14T09:23:53;4.82;;;2.20;;
12968;SDS011;6549;53.128;8.182;2023-06-14T09:26:54;3.53;;;2.28;;
12968;SDS011;6549;53.128;8.182;2023-06-14T09:29:55;3.85;;;2.10;;
12968;SDS011;6549;53.128;8.182;2023-06-14T09:32:55;4.07;;;2.50;;
12968;SDS011;6549;53.128;8.182;2023-06-14T09:35:56;3.55;;;2.00;;
12968;SDS011;6549;53.128;8.182;2023-06-14T09:39:00;4.65;;;2.30;;
12968;SDS011;6549;53.128;8.182;2023-06-14T09:42:16;4.13;;;2.40;;
12968;SDS011;6549;53.128;8.182;2023-06-14T09:45:19;6.72;;;2.30;;
12968;SDS011;6549;53.128;8.182;2023-06-14T09:51:22;5.80;;;2.27;;
12968;SDS011;6549;53.128;8.182;2023-06-14T09:54:23;5.13;;;2.70;;
12968;SDS011;6549;53.128;8.182;2023-06-14T10:00:27;4.60;;;2.38;;
12968;SDS011;6549;53.128;8.182;2023-06-14T10:03:31;7.05;;;2.55;;
12968;SDS011;6549;53.128;8.182;2023-06-14T10:06:34;5.50;;;2.70;;
12968;SDS011;6549;53.128;8.182;2023-06-14T10:09:37;4.93;;;2.65;;
12968;SDS011;6549;53.128;8.182;2023-06-14T10:12:39;6.68;;;2.78;;
12968;SDS011;6549;53.128;8.182;2023-06-14T10:15:48;8.10;;;2.60;;
12968;SDS011;6549;53.128;8.182;2023-06-14T10:22:22;3.92;;;2.30;;
12968;SDS011;6549;53.128;8.182;2023-06-14T10:25:29;5.20;;;2.65;;
12968;SDS011;6549;53.128;8.182;2023-06-14T10:28:30;3.30;;;2.35;;
12968;SDS011;6549;53.128;8.182;2023-06-14T10:31:48;6.23;;;2.60;;
12968;SDS011;6549;53.128;8.182;2023-06-14T10:35:05;4.97;;;2.35;;
12968;SDS011;6549;53.128;8.182;2023-06-14T10:38:09;6.47;;;2.40;;
12968;SDS011;6549;53.128;8.182;2023-06-14T10:41:11;4.35;;;2.53;;
12968;SDS011;6549;53.128;8.182;2023-06-14T10:47:23;3.17;;;2.60;;
12968;SDS011;6549;53.128;8.182;2023-06-14T10:53:39;7.32;;;2.60;;
12968;SDS011;6549;53.128;8.182;2023-06-14T10:56:47;3.17;;;2.42;;
12968;SDS011;6549;53.128;8.182;2023-06-14T10:59:48;3.90;;;2.20;;
12968;SDS011;6549;53.128;8.182;2023-06-14T11:06:14;8.30;;;2.47;;
12968;SDS011;6549;53.128;8.182;2023-06-14T11:12:29;7.68;;;2.45;;
12968;SDS011;6549;53.128;8.182;2023-06-14T11:15:34;4.85;;;2.50;;
12968;SDS011;6549;53.128;8.182;2023-06-14T11:18:36;4.85;;;2.40;;
12968;SDS011;6549;53.128;8.182;2023-06-14T11:21:39;5.45;;;2.80;;
12968;SDS011;6549;53.128;8.182;2023-06-14T11:24:40;5.45;;;2.60;;
12968;SDS011;6549;53.128;8.182;2023-06-14T11:27:41;3.50;;;2.45;;
12968;SDS011;6549;53.128;8.182;2023-06-14T11:30:43;3.72;;;2.53;;
12968;SDS011;6549;53.128;8.182;2023-06-14T11:33:49;5.13;;;2.88;;
12968;SDS011;6549;53.128;8.182;2023-06-14T11:36:50;5.03;;;2.60;;
12968;SDS011;6549;53.128;8.182;2023-06-14T11:39:50;4.07;;;2.72;;
12968;SDS011;6549;53.128;8.182;2023-06-14T11:42:57;4.10;;;2.80;;
12968;SDS011;6549;53.128;8.182;2023-06-14T11:45:59;4.25;;;2.90;;
12968;SDS011;6549;53.128;8.182;2023-06-14T11:49:00;4.65;;;2.70;;
12968;SDS011;6549;53.128;8.182;2023-06-14T11:52:03;4.07;;;2.67;;
12968;SDS011;6549;53.128;8.182;2023-06-14T11:55:03;5.78;;;2.65;;
12968;SDS011;6549;53.128;8.182;2023-06-14T11:58:06;4.57;;;2.90;;
12968;SDS011;6549;53.128;8.182;2023-06-14T12:01:06;4.72;;;2.70;;
12968;SDS011;6549;53.128;8.182;2023-06-14T12:04:07;4.70;;;2.30;;
12968;SDS011;6549;53.128;8.182;2023-06-14T12:07:11;4.30;;;2.88;;
12968;SDS011;6549;53.128;8.182;2023-06-14T12:10:15;5.78;;;2.90;;
12968;SDS011;6549;53.128;8.182;2023-06-14T12:13:16;4.63;;;2.75;;
12968;SDS011;6549;53.128;8.182;2023-06-14T12:16:17;7.82;;;2.70;;
12968;SDS011;6549;53.128;8.182;2023-06-14T12:19:17;5.50;;;2.85;;
12968;SDS011;6549;53.128;8.182;2023-06-14T12:22:17;4.80;;;2.97;;
12968;SDS011;6549;53.128;8.182;2023-06-14T12:25:27;5.90;;;2.60;;
12968;SDS011;6549;53.128;8.182;2023-06-14T12:28:31;5.00;;;2.88;;
12968;SDS011;6549;53.128;8.182;2023-06-14T12:31:31;4.85;;;3.10;;
12968;SDS011;6549;53.128;8.182;2023-06-14T12:34:32;5.65;;;2.65;;
12968;SDS011;6549;53.128;8.182;2023-06-14T12:37:32;5.72;;;2.60;;
12968;SDS011;6549;53.128;8.182;2023-06-14T12:40:33;4.85;;;2.83;;
12968;SDS011;6549;53.128;8.182;2023-06-14T12:43:33;7.97;;;3.30;;
12968;SDS011;6549;53.128;8.182;2023-06-14T12:46:34;6.10;;;2.97;;
12968;SDS011;6549;53.128;8.182;2023-06-14T12:49:35;4.43;;;2.75;;
12968;SDS011;6549;53.128;8.182;2023-06-14T12:52:35;5.05;;;3.00;;
12968;SDS011;6549;53.128;8.182;2023-06-14T12:55:38;6.70;;;2.80;;
12968;SDS011;6549;53.128;8.182;2023-06-14T12:58:38;6.40;;;2.80;;
12968;SDS011;6549;53.128;8.182;2023-06-14T13:01:39;7.25;;;3.05;;
12968;SDS011;6549;53.128;8.182;2023-06-14T13:04:40;6.15;;;2.97;;
12968;SDS011;6549;53.128;8.182;2023-06-14T13:07:40;5.43;;;2.83;;
12968;SDS011;6549;53.128;8.182;2023-06-14T13:10:40;4.28;;;2.85;;
12968;SDS011;6549;53.128;8.182;2023-06-14T13:13:41;5.00;;;2.93;;
12968;SDS011;6549;53.128;8.182;2023-06-14T13:16:41;8.07;;;3.00;;
12968;SDS011;6549;53.128;8.182;2023-06-14T13:19:41;4.67;;;2.73;;
12968;SDS011;6549;53.128;8.182;2023-06-14T13:22:44;6.65;;;2.88;;
12968;SDS011;6549;53.128;8.182;2023-06-14T13:25:45;4.22;;;2.60;;
12968;SDS011;6549;53.128;8.182;2023-06-14T13:28:45;4.65;;;3.15;;
12968;SDS011;6549;53.128;8.182;2023-06-14T13:31:45;3.95;;;2.92;;
12968;SDS011;6549;53.128;8.182;2023-06-14T13:34:49;6.63;;;3.05;;
12968;SDS011;6549;53.128;8.182;2023-06-14T13:37:49;4.10;;;2.95;;
12968;SDS011;6549;53.128;8.182;2023-06-14T13:40:50;3.22;;;2.53;;
12968;SDS011;6549;53.128;8.182;2023-06-14T13:43:50;5.05;;;3.00;;
12968;SDS011;6549;53.128;8.182;2023-06-14T13:46:51;4.53;;;2.88;;
12968;SDS011;6549;53.128;8.182;2023-06-14T13:49:51;5.60;;;2.90;;
12968;SDS011;6549;53.128;8.182;2023-06-14T13:52:51;9.25;;;2.90;;
12968;SDS011;6549;53.128;8.182;2023-06-14T13:55:52;15.15;;;3.50;;
12968;SDS011;6549;53.128;8.182;2023-06-14T13:58:52;34.45;;;4.75;;
12968;SDS011;6549;53.128;8.182;2023-06-14T14:01:53;5.90;;;3.40;;
12968;SDS011;6549;53.128;8.182;2023-06-14T14:04:53;5.82;;;3.05;;
12968;SDS011;6549;53.128;8.182;2023-06-14T14:07:54;5.72;;;3.03;;
12968;SDS011;6549;53.128;8.182;2023-06-14T14:10:55;5.50;;;3.03;;
12968;SDS011;6549;53.128;8.182;2023-06-14T14:13:55;4.22;;;3.03;;
12968;SDS011;6549;53.128;8.182;2023-06-14T14:16:57;4.38;;;3.22;;
12968;SDS011;6549;53.128;8.182;2023-06-14T14:19:57;5.65;;;3.10;;
12968;SDS011;6549;53.128;8.182;2023-06-14T14:22:57;5.03;;;3.10;;
12968;SDS011;6549;53.128;8.182;2023-06-14T14:25:58;6.75;;;3.10;;
12968;SDS011;6549;53.128;8.182;2023-06-14T14:29:00;4.90;;;3.00;;
12968;SDS011;6549;53.128;8.182;2023-06-14T14:32:02;4.03;;;2.80;;
12968;SDS011;6549;53.128;8.182;2023-06-14T14:35:03;5.15;;;2.80;;
12968;SDS011;6549;53.128;8.182;2023-06-14T14:38:03;8.20;;;3.20;;
12968;SDS011;6549;53.128;8.182;2023-06-14T14:41:05;3.70;;;2.88;;
12968;SDS011;6549;53.128;8.182;2023-06-14T14:44:05;4.60;;;2.80;;
12968;SDS011;6549;53.128;8.182;2023-06-14T14:47:06;5.22;;;2.95;;
12968;SDS011;6549;53.128;8.182;2023-06-14T14:50:06;7.32;;;3.20;;
12968;SDS011;6549;53.128;8.182;2023-06-14T14:53:09;8.35;;;3.15;;
12968;SDS011;6549;53.128;8.182;2023-06-14T14:56:09;6.10;;;3.22;;
12968;SDS011;6549;53.128;8.182;2023-06-14T14:59:09;13.80;;;3.30;;
12968;SDS011;6549;53.128;8.182;2023-06-14T15:02:13;5.78;;;2.78;;
12968;SDS011;6549;53.128;8.182;2023-06-14T15:05:13;4.82;;;3.30;;
12968;SDS011;6549;53.128;8.182;2023-06-14T15:08:13;6.05;;;3.33;;
12968;SDS011;6549;53.128;8.182;2023-06-14T15:11:14;6.13;;;2.97;;
12968;SDS011;6549;53.128;8.182;2023-06-14T15:14:14;4.28;;;3.03;;
12968;SDS011;6549;53.128;8.182;2023-06-14T15:17:15;7.45;;;3.38;;
12968;SDS011;6549;53.128;8.182;2023-06-14T15:20:15;5.93;;;3.20;;
12968;SDS011;6549;53.128;8.182;2023-06-14T15:23:16;5.82;;;3.28;;
12968;SDS011;6549;53.128;8.182;2023-06-14T15:26:20;6.10;;;3.55;;
12968;SDS011;6549;53.128;8.182;2023-06-14T15:29:20;5.75;;;3.30;;
12968;SDS011;6549;53.128;8.182;2023-06-14T15:32:20;6.03;;;3.10;;
12968;SDS011;6549;53.128;8.182;2023-06-14T15:35:21;5.20;;;3.00;;
12968;SDS011;6549;53.128;8.182;2023-06-14T15:38:22;4.97;;;2.83;;
12968;SDS011;6549;53.128;8.182;2023-06-14T15:41:22;5.03;;;3.20;;
12968;SDS011;6549;53.128;8.182;2023-06-14T15:44:22;6.00;;;3.22;;
12968;SDS011;6549;53.128;8.182;2023-06-14T15:47:23;4.25;;;2.90;;
12968;SDS011;6549;53.128;8.182;2023-06-14T15:50:23;5.55;;;3.20;;
12968;SDS011;6549;53.128;8.182;2023-06-14T15:53:24;7.90;;;3.30;;
12968;SDS011;6549;53.128;8.182;2023-06-14T15:56:24;7.10;;;3.30;;
12968;SDS011;6549;53.128;8.182;2023-06-14T15:59:25;4.65;;;2.78;;
12968;SDS011;6549;53.128;8.182;2023-06-14T16:02:28;5.45;;;2.78;;
12968;SDS011;6549;53.128;8.182;2023-06-14T16:05:28;4.90;;;3.30;;
12968;SDS011;6549;53.128;8.182;2023-06-14T16:08:28;6.90;;;3.10;;
12968;SDS011;6549;53.128;8.182;2023-06-14T16:11:29;4.95;;;3.30;;
12968;SDS011;6549;53.128;8.182;2023-06-14T16:14:29;5.60;;;3.17;;
12968;SDS011;6549;53.128;8.182;2023-06-14T16:17:29;3.75;;;3.10;;
12968;SDS011;6549;53.128;8.182;2023-06-14T16:20:30;7.68;;;3.35;;
12968;SDS011;6549;53.128;8.182;2023-06-14T16:23:30;4.38;;;3.08;;
12968;SDS011;6549;53.128;8.182;2023-06-14T16:26:30;4.72;;;2.90;;
12968;SDS011;6549;53.128;8.182;2023-06-14T16:29:31;6.95;;;3.25;;
12968;SDS011;6549;53.128;8.182;2023-06-14T16:32:31;8.18;;;3.50;;
12968;SDS011;6549;53.128;8.182;2023-06-14T16:35:32;5.35;;;3.13;;
12968;SDS011;6549;53.128;8.182;2023-06-14T16:38:32;6.30;;;3.03;;
12968;SDS011;6549;53.128;8.182;2023-06-14T16:41:33;5.90;;;3.15;;
12968;SDS011;6549;53.128;8.182;2023-06-14T16:44:33;7.50;;;3.40;;
12968;SDS011;6549;53.128;8.182;2023-06-14T16:47:33;5.82;;;3.25;;
12968;SDS011;6549;53.128;8.182;2023-06-14T16:50:34;5.93;;;3.28;;
12968;SDS011;6549;53.128;8.182;2023-06-14T16:53:34;6.30;;;3.30;;
12968;SDS011;6549;53.128;8.182;2023-06-14T16:56:35;5.82;;;3.30;;
12968;SDS011;6549;53.128;8.182;2023-06-14T16:59:35;4.88;;;3.10;;
12968;SDS011;6549;53.128;8.182;2023-06-14T17:02:35;7.50;;;3.00;;
12968;SDS011;6549;53.128;8.182;2023-06-14T17:05:36;6.13;;;3.65;;
12968;SDS011;6549;53.128;8.182;2023-06-14T17:08:36;6.13;;;3.10;;
12968;SDS011;6549;53.128;8.182;2023-06-14T17:11:36;6.28;;;3.35;;
12968;SDS011;6549;53.128;8.182;2023-06-14T17:14:37;8.07;;;3.30;;
12968;SDS011;6549;53.128;8.182;2023-06-14T17:17:37;5.13;;;3.15;;
12968;SDS011;6549;53.128;8.182;2023-06-14T17:20:38;7.68;;;3.10;;
12968;SDS011;6549;53.128;8.182;2023-06-14T17:23:38;6.28;;;3.38;;
12968;SDS011;6549;53.128;8.182;2023-06-14T17:26:38;4.28;;;2.90;;
12968;SDS011;6549;53.128;8.182;2023-06-14T17:29:39;7.72;;;3.25;;
12968;SDS011;6549;53.128;8.182;2023-06-14T17:32:40;6.13;;;3.20;;
12968;SDS011;6549;53.128;8.182;2023-06-14T17:35:40;6.28;;;3.20;;
12968;SDS011;6549;53.128;8.182;2023-06-14T17:38:40;4.43;;;3.20;;
12968;SDS011;6549;53.128;8.182;2023-06-14T17:41:41;5.70;;;3.13;;
12968;SDS011;6549;53.128;8.182;2023-06-14T17:44:41;6.40;;;3.05;;
12968;SDS011;6549;53.128;8.182;2023-06-14T17:47:41;7.65;;;3.08;;
12968;SDS011;6549;53.128;8.182;2023-06-14T17:50:41;4.18;;;3.15;;
12968;SDS011;6549;53.128;8.182;2023-06-14T17:53:42;5.97;;;2.97;;
12968;SDS011;6549;53.128;8.182;2023-06-14T17:56:42;5.93;;;2.78;;
12968;SDS011;6549;53.128;8.182;2023-06-14T17:59:42;5.82;;;3.10;;
12968;SDS011;6549;53.128;8.182;2023-06-14T18:02:43;4.38;;;3.10;;
12968;SDS011;6549;53.128;8.182;2023-06-14T18:05:43;6.20;;;3.33;;
12968;SDS011;6549;53.128;8.182;2023-06-14T18:08:44;4.47;;;2.70;;
12968;SDS011;6549;53.128;8.182;2023-06-14T18:11:50;7.25;;;2.75;;
12968;SDS011;6549;53.128;8.182;2023-06-14T18:14:50;5.63;;;2.67;;
12968;SDS011;6549;53.128;8.182;2023-06-14T18:17:51;5.20;;;3.03;;
12968;SDS011;6549;53.128;8.182;2023-06-14T18:20:52;8.07;;;2.87;;
12968;SDS011;6549;53.128;8.182;2023-06-14T18:23:52;7.97;;;3.00;;
12968;SDS011;6549;53.128;8.182;2023-06-14T18:26:53;4.63;;;2.80;;
12968;SDS011;6549;53.128;8.182;2023-06-14T18:29:53;4.70;;;2.67;;
12968;SDS011;6549;53.128;8.182;2023-06-14T18:32:53;5.10;;;2.92;;
12968;SDS011;6549;53.128;8.182;2023-06-14T18:35:53;6.30;;;3.08;;
12968;SDS011;6549;53.128;8.182;2023-06-14T18:38:54;7.15;;;3.00;;
12968;SDS011;6549;53.128;8.182;2023-06-14T18:41:54;3.95;;;2.58;;
12968;SDS011;6549;53.128;8.182;2023-06-14T18:44:55;5.93;;;3.10;;
12968;SDS011;6549;53.128;8.182;2023-06-14T18:47:55;7.68;;;3.15;;
12968;SDS011;6549;53.128;8.182;2023-06-14T19:10:21;8.30;;;3.30;;
12968;SDS011;6549;53.128;8.182;2023-06-14T19:13:22;5.35;;;3.10;;
12968;SDS011;6549;53.128;8.182;2023-06-14T19:16:22;7.32;;;2.90;;
12968;SDS011;6549;53.128;8.182;2023-06-14T19:19:23;4.88;;;3.00;;
12968;SDS011;6549;53.128;8.182;2023-06-14T19:22:23;6.20;;;3.08;;
12968;SDS011;6549;53.128;8.182;2023-06-14T19:25:23;6.43;;;2.95;;
12968;SDS011;6549;53.128;8.182;2023-06-14T19:28:24;6.97;;;2.92;;
12968;SDS011;6549;53.128;8.182;2023-06-14T19:31:25;7.30;;;3.20;;
12968;SDS011;6549;53.128;8.182;2023-06-14T19:34:26;4.63;;;2.70;;
12968;SDS011;6549;53.128;8.182;2023-06-14T19:37:26;8.82;;;3.42;;
12968;SDS011;6549;53.128;8.182;2023-06-14T19:40:26;6.78;;;3.15;;
12968;SDS011;6549;53.128;8.182;2023-06-14T19:43:27;4.88;;;2.92;;
12968;SDS011;6549;53.128;8.182;2023-06-14T19:46:27;7.82;;;3.20;;
12968;SDS011;6549;53.128;8.182;2023-06-14T19:49:27;7.93;;;3.00;;
12968;SDS011;6549;53.128;8.182;2023-06-14T19:52:28;6.00;;;2.95;;
12968;SDS011;6549;53.128;8.182;2023-06-14T19:55:28;5.88;;;2.88;;
12968;SDS011;6549;53.128;8.182;2023-06-14T19:58:28;6.10;;;3.10;;
12968;SDS011;6549;53.128;8.182;2023-06-14T20:01:28;7.05;;;3.00;;
12968;SDS011;6549;53.128;8.182;2023-06-14T20:04:29;6.43;;;3.20;;
12968;SDS011;6549;53.128;8.182;2023-06-14T20:07:30;5.95;;;3.28;;